Time;durP1;ratioP1;P1;durP2;ratioP2;P2;SDS_P1;SDS_P2;PMS_P1;PMS_P2;Temp;Humidity;BMP_temperature;BMP_pressure;BME280_temperature;BME280_humidity;BME280_pressure;Samples;Min_cycle;Max_cycle;Signal;HPM_P1;HPM_P2
2023/08/10 00:01:25;;;;;;;3.10;2.80;;;;;;;16.92;90.81;100718.56;84175;282;136961;-58
2023/08/10 00:03:27;;;;;;;7.10;3.40;;;;;;;16.92;90.85;100719.15;84253;282;22562;-73
2023/08/10 00:05:30;;;;;;;4.00;3.00;;;;;;;16.92;90.55;100720.06;84243;282;138476;-61
2023/08/10 00:07:34;;;;;;;4.20;3.70;;;;;;;16.92;89.74;100720.48;84362;282;24224;-64
2023/08/10 00:09:36;;;;;;;4.00;3.50;;;;;;;16.91;89.40;100724.16;84220;281;137031;-60
2023/08/10 00:12:29;;;;;;;5.90;3.30;;;;;;;16.91;88.69;100724.34;82986;304;546627;-62
2023/08/10 00:14:32;;;;;;;5.50;4.30;;;;;;;17.00;87.86;100723.91;84093;288;22570;-63
2023/08/10 00:16:34;;;;;;;5.80;4.40;;;;;;;17.04;87.54;100725.66;84127;288;135906;-64
2023/08/10 00:18:36;;;;;;;5.90;3.40;;;;;;;17.07;87.23;100726.92;84157;288;24329;-64
2023/08/10 00:20:38;;;;;;;4.10;3.70;;;;;;;17.05;87.16;100725.58;84034;287;137083;-71
2023/08/10 00:22:39;;;;;;;7.60;4.30;;;;;;;17.01;87.39;100725.73;84005;287;25226;-63
2023/08/10 00:24:42;;;;;;;5.50;3.90;;;;;;;16.97;87.04;100722.75;83950;288;136516;-65
2023/08/10 00:26:44;;;;;;;5.40;3.60;;;;;;;16.93;86.89;100726.14;83594;289;565726;-63
2023/08/10 00:28:47;;;;;;;4.50;3.40;;;;;;;16.90;86.60;100726.62;83998;287;136790;-63
2023/08/10 00:30:49;;;;;;;10.30;3.40;;;;;;;16.89;86.53;100724.38;83909;288;22566;-62
2023/08/10 00:32:51;;;;;;;4.90;4.20;;;;;;;16.89;86.34;100722.11;83842;288;137247;-62
2023/08/10 00:34:53;;;;;;;4.50;3.60;;;;;;;16.87;86.29;100726.64;84121;287;25318;-62
2023/08/10 00:36:54;;;;;;;4.20;3.80;;;;;;;16.82;86.51;100729.58;83995;287;136898;-63
2023/08/10 00:38:56;;;;;;;4.10;3.10;;;;;;;16.73;87.13;100733.69;84030;287;22634;-70
2023/08/10 00:40:58;;;;;;;3.80;3.30;;;;;;;16.70;87.20;100735.54;84021;287;136732;-60
2023/08/10 00:43:01;;;;;;;5.30;3.50;;;;;;;16.69;87.43;100729.90;84007;287;25427;-60
2023/08/10 00:45:03;;;;;;;4.30;3.40;;;;;;;16.67;87.83;100730.04;84026;287;136780;-59
2023/08/10 00:47:07;;;;;;;3.80;3.00;;;;;;;16.67;88.13;100732.27;84343;281;25219;-65
2023/08/10 00:49:09;;;;;;;4.60;3.70;;;;;;;16.64;88.48;100733.39;84250;281;136769;-64
2023/08/10 00:51:13;;;;;;;5.00;3.50;;;;;;;16.63;88.42;100736.24;84114;283;24479;-61
2023/08/10 00:53:17;;;;;;;3.80;2.80;;;;;;;16.60;88.48;100740.02;84135;281;137838;-62
2023/08/10 00:55:19;;;;;;;3.40;3.10;;;;;;;16.59;88.21;100744.31;84274;282;22551;-59
2023/08/10 00:57:21;;;;;;;3.00;2.60;;;;;;;16.56;87.66;100742.72;84236;282;138406;-62
2023/08/10 00:59:25;;;;;;;4.50;3.00;;;;;;;16.47;87.04;100746.80;84128;283;25305;-65
2023/08/10 01:01:27;;;;;;;3.90;3.10;;;;;;;16.40;87.08;100746.30;84077;282;136136;-66
2023/08/10 01:03:30;;;;;;;3.00;2.80;;;;;;;16.38;86.72;100755.55;84270;284;22547;-63
2023/08/10 01:05:43;;;;;;;2.90;2.70;;;;;;;16.34;86.47;100757.46;84135;282;136372;-61
2023/08/10 01:07:56;;;;;;;5.40;3.40;;;;;;;16.31;86.42;100757.08;84377;281;22543;-65
2023/08/10 01:10:39;;;;;;;4.30;2.80;;;;;;;16.28;86.91;100756.40;84288;282;137641;-61
2023/08/10 01:12:49;;;;;;;3.20;2.80;;;;;;;16.31;87.35;100758.44;83877;285;136904;-63
2023/08/10 01:15:05;;;;;;;3.30;3.10;;;;;;;16.31;87.01;100757.70;84089;285;22811;-63
2023/08/10 01:17:19;;;;;;;3.00;2.80;;;;;;;16.32;87.05;100758.35;84123;282;138080;-62
2023/08/10 01:19:38;;;;;;;4.40;3.10;;;;;;;16.31;87.23;100760.76;84392;281;23179;-66
2023/08/10 01:21:50;;;;;;;3.90;3.40;;;;;;;16.29;87.22;100763.16;84260;282;136656;-62
2023/08/10 01:23:55;;;;;;;8.00;4.60;;;;;;;16.29;86.77;100767.39;84274;284;25294;-75
2023/08/10 01:25:58;;;;;;;5.20;3.70;;;;;;;16.27;86.66;100768.07;84143;283;136698;-63
2023/08/10 01:28:00;;;;;;;6.10;4.00;;;;;;;16.21;86.65;100767.88;84252;283;22472;-64
2023/08/10 01:30:07;;;;;;;4.00;3.70;;;;;;;16.18;86.53;100765.17;84339;282;22743;-64
2023/08/10 01:32:13;;;;;;;4.30;3.60;;;;;;;16.14;86.72;100765.65;84155;284;137155;-71
2023/08/10 01:34:16;;;;;;;4.00;3.60;;;;;;;16.17;86.79;100764.14;84135;284;22563;-61
2023/08/10 01:36:18;;;;;;;4.10;3.50;;;;;;;16.14;87.17;100767.63;84223;282;139497;-62
2023/08/10 01:38:20;;;;;;;5.00;4.10;;;;;;;16.12;87.48;100768.27;84278;283;22978;-65
2023/08/10 01:40:22;;;;;;;6.20;3.60;;;;;;;16.10;87.80;100767.77;84216;282;137589;-62
2023/08/10 01:42:25;;;;;;;5.60;4.40;;;;;;;16.08;87.78;100770.39;84234;282;23908;-62
2023/08/10 01:44:27;;;;;;;4.80;4.30;;;;;;;16.06;88.11;100768.36;84248;282;136798;-63
2023/08/10 01:46:32;;;;;;;4.20;3.50;;;;;;;16.05;88.17;100774.66;84370;281;24099;-64
2023/08/10 01:48:37;;;;;;;5.20;4.70;;;;;;;16.04;88.27;100771.81;84225;285;137018;-63
2023/08/10 01:50:44;;;;;;;3.90;3.60;;;;;;;16.04;88.23;100776.04;84203;284;22944;-62
2023/08/10 01:52:52;;;;;;;8.00;4.40;;;;;;;16.02;87.79;100778.08;84166;281;136253;-61
2023/08/10 01:54:54;;;;;;;9.60;5.90;;;;;;;15.99;87.87;100778.79;84322;281;24798;-61
2023/08/10 01:56:56;;;;;;;4.90;4.40;;;;;;;15.97;88.31;100780.45;84292;282;136285;-64
2023/08/10 01:58:58;;;;;;;6.80;4.30;;;;;;;15.94;88.07;100778.52;84212;285;22625;-66
2023/08/10 02:01:01;;;;;;;6.40;4.30;;;;;;;15.94;87.85;100776.00;84192;282;136751;-65
2023/08/10 02:03:07;;;;;;;6.30;4.60;;;;;;;15.98;87.53;100780.49;84454;282;26203;-64
2023/08/10 02:05:12;;;;;;;10.60;5.50;;;;;;;16.02;87.42;100780.68;84130;283;137619;-62
2023/08/10 02:07:14;;;;;;;5.00;4.40;;;;;;;16.05;87.97;100781.13;84258;283;22592;-62
2023/08/10 02:09:16;;;;;;;11.00;5.40;;;;;;;16.04;88.23;100780.86;84183;283;136611;-63
2023/08/10 02:11:18;;;;;;;8.70;5.70;;;;;;;16.04;88.24;100786.75;84282;282;22576;-62
2023/08/10 02:13:20;;;;;;;8.90;5.50;;;;;;;15.99;89.01;100787.27;84056;282;136609;-65
2023/08/10 02:15:22;;;;;;;5.30;4.90;;;;;;;15.97;88.91;100787.19;84101;284;22794;-62
2023/08/10 02:17:29;;;;;;;6.00;4.10;;;;;;;15.95;88.50;100789.06;84297;281;136958;-62
2023/08/10 02:19:31;;;;;;;15.50;4.90;;;;;;;15.92;88.65;100791.96;84348;282;22649;-63
2023/08/10 02:21:32;;;;;;;5.30;4.80;;;;;;;15.91;88.87;100792.67;84231;283;137101;-64
2023/08/10 02:23:35;;;;;;;6.00;5.40;;;;;;;15.92;88.91;100795.27;84329;284;23897;-67
2023/08/10 02:25:37;;;;;;;6.00;5.40;;;;;;;15.90;89.32;100798.60;84290;282;136853;-67
2023/08/10 02:27:40;;;;;;;6.00;5.00;;;;;;;15.83;89.80;100798.53;84283;282;22580;-65
2023/08/10 02:29:42;;;;;;;7.80;4.90;;;;;;;15.79;89.41;100800.52;84281;282;136763;-64
2023/08/10 02:31:44;;;;;;;5.70;4.90;;;;;;;15.83;88.69;100799.94;84125;284;23785;-60
2023/08/10 02:33:46;;;;;;;4.70;4.30;;;;;;;15.85;88.35;100803.53;84217;281;135955;-64
2023/08/10 02:35:48;;;;;;;5.80;5.00;;;;;;;15.89;88.00;100797.31;84255;281;22564;-64
2023/08/10 02:37:50;;;;;;;5.00;4.60;;;;;;;15.91;87.82;100796.61;84050;283;135972;-63
2023/08/10 02:39:54;;;;;;;4.50;4.10;;;;;;;15.94;87.79;100795.35;84326;282;22543;-65
2023/08/10 02:41:55;;;;;;;5.60;5.00;;;;;;;15.96;88.91;100800.19;84125;270;137998;-63
2023/08/10 02:43:57;;;;;;;6.50;5.10;;;;;;;16.02;88.92;100800.80;84231;282;22550;-64
2023/08/10 02:45:59;;;;;;;7.40;4.80;;;;;;;16.01;88.92;100805.30;84246;282;136614;-64
2023/08/10 02:48:01;;;;;;;4.80;4.30;;;;;;;15.99;89.02;100804.02;84154;282;22557;-61
2023/08/10 02:50:05;;;;;;;6.00;4.70;;;;;;;16.02;89.17;100802.31;84314;282;22725;-63
2023/08/10 02:52:07;;;;;;;6.60;4.00;;;;;;;16.03;89.66;100805.74;84236;282;137135;-61
2023/08/10 02:54:09;;;;;;;4.60;4.20;;;;;;;16.00;90.28;100805.84;84188;283;23705;-61
2023/08/10 02:56:11;;;;;;;5.70;4.50;;;;;;;15.99;90.61;100806.08;84062;283;137515;-65
2023/08/10 02:58:13;;;;;;;6.60;4.70;;;;;;;15.95;91.15;100810.73;84328;282;22550;-60
2023/08/10 03:00:15;;;;;;;6.50;4.60;;;;;;;15.95;91.61;100811.10;84150;282;137287;-60
2023/08/10 03:02:18;;;;;;;5.90;5.00;;;;;;;16.03;92.57;100812.36;84256;283;22553;-63
2023/08/10 03:04:21;;;;;;;5.90;4.30;;;;;;;16.16;93.57;100810.20;84233;283;136623;-58
2023/08/10 03:06:23;;;;;;;4.80;4.20;;;;;;;16.34;93.33;100810.45;84434;282;22663;-60
2023/08/10 03:08:25;;;;;;;5.20;4.50;;;;;;;16.57;92.68;100809.70;84223;282;137006;-63
2023/08/10 03:10:27;;;;;;;4.60;4.10;;;;;;;16.84;91.79;100811.89;84189;285;24060;-62
2023/08/10 03:12:29;;;;;;;8.20;5.00;;;;;;;17.19;90.21;100810.22;84183;282;136586;-63
2023/08/10 03:14:32;;;;;;;4.90;4.40;;;;;;;17.57;86.72;100810.90;84148;283;22571;-58
2023/08/10 03:16:34;;;;;;;7.00;5.30;;;;;;;17.97;84.76;100808.88;84129;283;139001;-61
2023/08/10 03:18:36;;;;;;;9.20;4.60;;;;;;;18.37;81.77;100815.96;84348;283;25196;-62
2023/08/10 03:20:38;;;;;;;6.20;5.60;;;;;;;18.76;78.95;100817.05;84136;285;137657;-62
2023/08/10 03:22:40;;;;;;;6.90;6.10;;;;;;;19.11;76.65;100819.67;84223;283;24140;-61
2023/08/10 03:24:43;;;;;;;6.20;5.10;;;;;;;19.46;74.86;100817.58;84278;282;136475;-60
2023/08/10 03:26:45;;;;;;;5.10;4.50;;;;;;;19.84;72.85;100820.63;84087;284;22578;-62
2023/08/10 03:28:47;;;;;;;4.90;4.10;;;;;;;20.18;69.84;100825.79;84149;282;137480;-65
2023/08/10 03:30:51;;;;;;;5.40;4.10;;;;;;;20.49;66.16;100825.90;84112;283;24780;-61
2023/08/10 03:32:54;;;;;;;7.70;6.30;;;;;;;20.79;63.71;100827.51;83988;283;135851;-60
2023/08/10 03:34:56;;;;;;;6.20;4.70;;;;;;;21.04;62.70;100826.01;84045;284;22551;-61
2023/08/10 03:36:58;;;;;;;3.80;3.10;;;;;;;21.31;60.99;100821.99;84232;281;136053;-60
2023/08/10 03:39:00;;;;;;;4.80;4.30;;;;;;;21.56;59.41;100820.98;84376;281;22665;-58
2023/08/10 03:41:02;;;;;;;4.80;3.70;;;;;;;21.86;58.76;100819.11;84235;281;137038;-62
2023/08/10 03:43:04;;;;;;;5.40;4.40;;;;;;;22.19;57.61;100813.27;84300;281;22562;-62
2023/08/10 03:45:07;;;;;;;7.00;3.50;;;;;;;22.49;55.90;100816.45;84237;281;136254;-62
2023/08/10 03:47:09;;;;;;;4.00;3.50;;;;;;;22.77;54.56;100815.45;84285;284;25294;-62
2023/08/10 03:49:10;;;;;;;4.00;3.60;;;;;;;23.05;53.80;100818.53;84095;283;136581;-60
2023/08/10 03:51:13;;;;;;;4.30;3.10;;;;;;;23.31;52.93;100819.83;84234;283;22559;-62
2023/08/10 03:53:15;;;;;;;3.20;2.90;;;;;;;23.56;51.23;100822.80;84224;281;136587;-62
2023/08/10 03:55:19;;;;;;;2.90;2.70;;;;;;;23.75;49.49;100822.31;84461;281;22691;-60
2023/08/10 03:57:23;;;;;;;5.10;3.30;;;;;;;23.79;49.53;100822.29;84297;281;136674;-63
2023/08/10 03:59:26;;;;;;;5.50;2.80;;;;;;;23.90;49.32;100821.86;84499;281;22760;-59
2023/08/10 04:01:28;;;;;;;4.30;3.40;;;;;;;24.08;48.64;100827.27;83986;282;136112;-62
2023/08/10 04:03:30;;;;;;;4.90;3.00;;;;;;;24.27;48.36;100824.12;84067;280;25261;-61
2023/08/10 04:05:32;;;;;;;4.30;3.30;;;;;;;24.50;47.78;100819.23;84121;281;137125;-60
2023/08/10 04:07:37;;;;;;;3.40;3.10;;;;;;;24.75;46.94;100822.39;84128;281;25877;-60
2023/08/10 04:09:44;;;;;;;4.30;3.10;;;;;;;25.05;46.63;100820.10;84016;283;136166;-61
2023/08/10 04:11:46;;;;;;;3.30;2.60;;;;;;;25.31;45.64;100812.80;84152;282;22550;-60
2023/08/10 04:13:48;;;;;;;4.90;2.90;;;;;;;25.70;45.11;100819.36;84177;281;136419;-63
2023/08/10 04:15:50;;;;;;;7.40;2.70;;;;;;;25.95;44.07;100817.05;84322;280;24058;-62
2023/08/10 04:17:51;;;;;;;3.70;3.20;;;;;;;26.17;43.54;100815.70;84178;281;136531;-59
2023/08/10 04:19:56;;;;;;;4.50;2.90;;;;;;;26.37;43.06;100816.30;84249;279;23581;-61
2023/08/10 04:21:58;;;;;;;4.20;2.80;;;;;;;26.60;42.50;100817.70;84344;281;136584;-60
2023/08/10 04:23:59;;;;;;;6.10;2.70;;;;;;;26.81;41.77;100811.86;84391;281;22578;-60
2023/08/10 04:26:01;;;;;;;2.90;2.60;;;;;;;27.02;41.40;100813.81;84167;278;136363;-61
2023/08/10 04:28:05;;;;;;;3.50;2.90;;;;;;;27.20;41.03;100814.16;84078;269;136794;-64
2023/08/10 04:30:08;;;;;;;4.70;3.00;;;;;;;27.37;40.64;100814.33;84302;281;22601;-69
2023/08/10 04:32:11;;;;;;;4.50;2.70;;;;;;;27.54;39.95;100814.23;84091;282;136651;-66
2023/08/10 04:34:14;;;;;;;3.20;2.40;;;;;;;27.69;39.75;100818.37;84310;281;22555;-64
2023/08/10 04:36:16;;;;;;;3.10;2.10;;;;;;;27.80;39.60;100817.26;84228;281;136429;-63
2023/08/10 04:38:18;;;;;;;3.10;2.10;;;;;;;27.90;38.96;100817.48;84320;281;23724;-64
2023/08/10 04:40:23;;;;;;;;;;;;;;;28.05;38.30;100819.48;84104;282;136466;-62
2023/08/10 04:42:25;;;;;;;2.10;2.00;;;;;;;28.19;37.59;100815.20;84422;281;25233;-64
2023/08/10 04:44:26;;;;;;;4.80;2.40;;;;;;;28.32;37.21;100819.46;84261;281;137370;-61
2023/08/10 04:46:28;;;;;;;2.50;1.90;;;;;;;28.47;36.53;100816.66;84088;281;26176;-63
2023/08/10 04:48:30;;;;;;;2.60;2.30;;;;;;;28.55;36.16;100816.79;84083;281;135452;-66
2023/08/10 04:50:32;;;;;;;2.50;2.30;;;;;;;28.58;36.20;100816.80;84218;283;23706;-66
2023/08/10 04:52:34;;;;;;;4.90;2.70;;;;;;;28.62;36.23;100813.89;84249;281;136485;-63
2023/08/10 04:54:37;;;;;;;7.20;1.90;;;;;;;28.66;36.23;100814.41;84463;280;22602;-63
2023/08/10 04:56:39;;;;;;;2.60;1.70;;;;;;;28.69;36.08;100810.26;84097;280;136234;-64
2023/08/10 04:58:41;;;;;;;4.80;2.20;;;;;;;28.72;35.83;100814.21;84440;281;22657;-67
2023/08/10 05:00:43;;;;;;;2.40;2.20;;;;;;;28.71;36.43;100815.48;84121;281;137484;-64
2023/08/10 05:02:45;;;;;;;2.90;1.90;;;;;;;28.70;35.83;100820.23;84153;281;22543;-64
2023/08/10 05:04:46;;;;;;;2.30;2.10;;;;;;;28.66;35.61;100819.02;84152;281;136462;-62
2023/08/10 05:06:48;;;;;;;3.00;2.10;;;;;;;28.64;35.66;100820.44;84407;281;22641;-64
2023/08/10 05:08:50;;;;;;;1.80;1.50;;;;;;;28.60;35.73;100821.55;84282;281;136353;-65
2023/08/10 05:10:53;;;;;;;4.80;1.90;;;;;;;28.65;36.08;100821.35;84230;281;25179;-62
2023/08/10 05:12:54;;;;;;;7.90;1.70;;;;;;;28.75;35.44;100827.29;84284;281;137426;-64
2023/08/10 05:14:56;;;;;;;3.10;1.70;;;;;;;28.81;35.13;100826.42;84451;281;25170;-64
2023/08/10 05:16:58;;;;;;;1.80;1.00;;;;;;;28.80;35.29;100829.23;84335;281;136546;-66
2023/08/10 05:18:59;;;;;;;1.50;0.80;;;;;;;28.76;34.95;100829.41;84441;281;22545;-66
2023/08/10 05:21:02;;;;;;;3.60;0.80;;;;;;;28.73;34.75;100830.76;84330;281;136520;-65
2023/08/10 05:23:04;;;;;;;1.30;1.00;;;;;;;28.69;34.25;100826.94;84324;281;22553;-66
2023/08/10 05:25:09;;;;;;;1.20;1.10;;;;;;;28.53;34.58;100826.06;83981;282;137946;-64
2023/08/10 05:27:11;;;;;;;2.20;0.90;;;;;;;28.35;34.92;100828.02;84483;281;23052;-63
2023/08/10 05:29:14;;;;;;;1.70;0.90;;;;;;;28.18;35.40;100833.34;84230;281;136333;-62
2023/08/10 05:31:16;;;;;;;2.00;1.10;;;;;;;28.03;35.21;100831.96;84215;281;24113;-63
2023/08/10 05:33:18;;;;;;;1.10;0.70;;;;;;;27.77;35.39;100830.77;84024;281;136276;-65
2023/08/10 05:35:21;;;;;;;3.90;0.80;;;;;;;27.50;36.12;100831.78;84245;281;22562;-65
2023/08/10 05:37:23;;;;;;;1.10;0.70;;;;;;;27.40;36.94;100830.39;84209;269;137836;-67
2023/08/10 05:39:25;;;;;;;2.30;1.10;;;;;;;27.31;37.04;100834.81;84086;281;22644;-63
2023/08/10 05:41:26;;;;;;;0.90;0.90;;;;;;;27.22;36.96;100833.39;84034;282;136375;-63
2023/08/10 05:43:28;;;;;;;1.40;1.20;;;;;;;27.18;37.39;100830.75;84282;281;22636;-64
2023/08/10 05:45:32;;;;;;;1.50;1.20;;;;;;;27.14;37.69;100829.68;84208;281;136663;-66
2023/08/10 05:47:35;;;;;;;2.80;0.80;;;;;;;27.13;38.07;100829.00;84289;281;22535;-65
2023/08/10 05:49:37;;;;;;;1.40;0.90;;;;;;;27.02;38.19;100833.41;84162;281;136500;-63
2023/08/10 05:51:41;;;;;;;1.30;1.20;;;;;;;26.72;37.95;100833.75;84173;281;25142;-64
2023/08/10 05:53:44;;;;;;;1.70;0.70;;;;;;;26.39;38.21;100830.55;84092;270;136684;-62
2023/08/10 05:55:45;;;;;;;3.40;1.20;;;;;;;26.01;38.58;100828.67;84415;281;26310;-63
2023/08/10 05:57:47;;;;;;;1.90;1.10;;;;;;;25.81;39.46;100835.33;84188;281;137892;-64
2023/08/10 05:59:49;;;;;;;3.40;1.10;;;;;;;25.63;39.98;100837.56;84324;281;25269;-65
2023/08/10 06:01:51;;;;;;;1.40;1.30;;;;;;;25.55;40.79;100843.27;84314;281;136219;-65
2023/08/10 06:03:53;;;;;;;2.40;1.20;;;;;;;25.54;41.35;100842.34;84393;281;22549;-67
2023/08/10 06:05:55;;;;;;;2.50;1.40;;;;;;;25.65;41.51;100840.51;84098;281;136159;-63
2023/08/10 06:07:57;;;;;;;2.40;1.20;;;;;;;25.82;41.09;100837.73;84323;274;25196;-63
2023/08/10 06:09:58;;;;;;;2.70;0.70;;;;;;;26.07;41.11;100838.75;84304;281;136494;-68
2023/08/10 06:12:03;;;;;;;3.40;0.60;;;;;;;26.36;41.03;100836.04;84259;281;25292;-66
2023/08/10 06:14:05;;;;;;;1.20;0.70;;;;;;;26.69;39.37;100836.34;84391;281;22543;-65
2023/08/10 06:16:08;;;;;;;1.00;0.60;;;;;;;26.89;38.36;100834.02;84215;281;136721;-65
2023/08/10 06:18:10;;;;;;;1.50;0.70;;;;;;;27.03;38.44;100835.47;84241;281;22547;-64
2023/08/10 06:20:16;;;;;;;0.50;0.30;;;;;;;27.17;37.51;100837.42;84074;269;136698;-66
2023/08/10 06:22:19;;;;;;;0.80;0.60;;;;;;;27.28;37.63;100835.29;84301;281;25153;-66
2023/08/10 06:24:22;;;;;;;2.30;0.40;;;;;;;27.33;37.14;100836.33;84239;281;136675;-65
2023/08/10 06:26:23;;;;;;;1.90;0.60;;;;;;;27.32;36.91;100834.64;84303;282;24132;-67
2023/08/10 06:28:27;;;;;;;1.40;0.60;;;;;;;27.38;36.92;100835.80;84088;281;136509;-69
2023/08/10 06:30:30;;;;;;;0.60;0.50;;;;;;;27.52;36.60;100832.41;84326;281;22567;-63
2023/08/10 06:32:36;;;;;;;1.20;0.40;;;;;;;27.70;37.02;100831.61;84190;281;136251;-66
2023/08/10 06:34:38;;;;;;;1.20;0.70;;;;;;;27.87;37.06;100831.92;84265;281;24560;-67
2023/08/10 06:36:39;;;;;;;1.00;0.30;;;;;;;27.98;35.61;100832.90;84067;281;136499;-68
2023/08/10 06:38:41;;;;;;;0.90;0.40;;;;;;;28.06;35.14;100830.29;84228;281;25209;-66
2023/08/10 06:40:43;;;;;;;1.20;0.40;;;;;;;28.17;34.73;100819.61;84176;281;136329;-65
2023/08/10 06:42:44;;;;;;;0.70;0.40;;;;;;;28.39;34.33;100822.48;84343;281;22675;-68
2023/08/10 06:44:51;;;;;;;1.00;0.30;;;;;;;28.46;34.20;100821.94;84135;282;136685;-67
2023/08/10 06:46:53;;;;;;;0.70;0.50;;;;;;;28.44;34.37;100820.92;84435;280;25180;-64
2023/08/10 06:48:55;;;;;;;0.50;0.30;;;;;;;28.42;34.21;100821.55;84107;280;136274;-68
2023/08/10 06:50:57;;;;;;;0.80;0.40;;;;;;;28.44;34.17;100820.29;84307;281;22548;-66
2023/08/10 06:52:59;;;;;;;2.80;1.00;;;;;;;28.45;34.13;100820.29;84184;281;137505;-68
2023/08/10 06:55:00;;;;;;;5.20;0.50;;;;;;;28.38;34.43;100822.60;84328;281;22800;-68
2023/08/10 06:57:02;;;;;;;1.30;0.40;;;;;;;28.16;34.29;100818.63;84181;281;136220;-68
2023/08/10 06:59:05;;;;;;;0.40;0.40;;;;;;;27.97;34.36;100825.67;84340;281;22543;-68
2023/08/10 07:01:11;;;;;;;1.20;0.40;;;;;;;27.91;34.67;100826.36;84221;281;137796;-69
2023/08/10 07:03:14;;;;;;;0.50;0.20;;;;;;;27.94;34.25;100822.81;84305;281;24103;-66
2023/08/10 07:05:16;;;;;;;1.40;0.30;;;;;;;27.95;34.35;100823.40;84266;281;136430;-68
2023/08/10 07:07:17;;;;;;;1.60;0.30;;;;;;;27.91;34.17;100823.95;84391;281;24315;-67
2023/08/10 07:09:23;;;;;;;1.70;0.30;;;;;;;27.98;35.48;100822.97;83984;283;137880;-68
2023/08/10 07:11:25;;;;;;;1.10;0.40;;;;;;;28.07;34.57;100828.78;84269;283;24641;-70
2023/08/10 07:13:27;;;;;;;1.00;0.30;;;;;;;27.97;34.27;100821.96;84198;281;136265;-69
2023/08/10 07:15:32;;;;;;;0.70;0.40;;;;;;;27.94;34.03;100826.54;84363;281;25190;-69
2023/08/10 07:17:35;;;;;;;5.00;0.50;;;;;;;27.90;34.08;100826.42;84113;281;136610;-67
2023/08/10 07:19:37;;;;;;;0.90;0.30;;;;;;;27.83;35.66;100827.62;84579;281;25176;-69
2023/08/10 07:21:39;;;;;;;0.80;0.40;;;;;;;27.83;35.25;100825.27;84061;281;136310;-66
2023/08/10 07:23:41;;;;;;;1.00;0.30;;;;;;;27.69;34.28;100821.92;84385;281;22555;-67
2023/08/10 07:25:44;;;;;;;1.00;0.30;;;;;;;27.34;35.20;100819.13;84141;282;137535;-68
2023/08/10 07:27:48;;;;;;;1.60;0.30;;;;;;;27.10;35.28;100824.37;84386;280;24450;-68
2023/08/10 07:29:50;;;;;;;;;;;;;;;27.00;35.09;100820.61;84161;251;135224;-67
2023/08/10 07:32:00;;;;;;;1.10;0.40;;;;;;;26.90;35.42;100822.18;84126;281;23720;-67
2023/08/10 07:34:02;;;;;;;3.10;0.50;;;;;;;26.71;35.75;100818.61;84133;281;23891;-66
2023/08/10 07:36:06;;;;;;;0.50;0.20;;;;;;;26.52;35.66;100824.34;84045;281;136780;-66
2023/08/10 07:38:09;;;;;;;1.10;0.20;;;;;;;26.42;35.46;100821.23;84272;283;22840;-67
2023/08/10 07:40:11;;;;;;;4.30;0.50;;;;;;;26.36;35.64;100817.23;84310;281;138469;-68
2023/08/10 07:42:13;;;;;;;2.20;0.50;;;;;;;26.33;36.10;100816.43;84364;281;22543;-69
2023/08/10 07:44:16;;;;;;;1.00;0.20;;;;;;;26.20;36.71;100824.59;84202;281;136432;-69
2023/08/10 07:46:18;;;;;;;0.60;0.60;;;;;;;26.04;36.08;100823.36;84243;281;24097;-64
2023/08/10 07:48:20;;;;;;;3.50;0.30;;;;;;;25.90;35.67;100819.20;84281;281;136682;-65
2023/08/10 07:50:22;;;;;;;0.60;0.30;;;;;;;25.84;36.21;100820.52;84277;281;25347;-67
2023/08/10 07:52:23;;;;;;;1.20;0.70;;;;;;;25.72;36.62;100826.84;84043;281;137827;-67
2023/08/10 07:54:25;;;;;;;2.40;0.40;;;;;;;25.50;36.76;100825.96;84177;281;22546;-65
2023/08/10 07:56:27;;;;;;;0.70;0.10;;;;;;;25.25;36.59;100827.58;84077;281;136356;-66
2023/08/10 07:58:29;;;;;;;1.40;0.50;;;;;;;25.07;37.10;100825.02;84198;281;24125;-66
2023/08/10 08:00:31;;;;;;;1.60;0.20;;;;;;;24.94;37.51;100825.13;83995;281;136277;-68
2023/08/10 08:02:33;;;;;;;1.10;0.30;;;;;;;24.89;37.95;100823.98;84287;281;22750;-68
2023/08/10 08:04:34;;;;;;;2.90;0.30;;;;;;;24.90;38.31;100822.83;84225;281;136682;-69
2023/08/10 08:06:37;;;;;;;0.30;0.20;;;;;;;24.93;38.14;100818.80;84408;281;22614;-69
2023/08/10 08:08:39;;;;;;;0.40;0.20;;;;;;;25.00;37.75;100825.17;84229;283;137642;-69
2023/08/10 08:10:41;;;;;;;0.30;0.30;;;;;;;25.08;37.68;100823.76;84153;281;25294;-67
2023/08/10 08:12:45;;;;;;;0.40;0.30;;;;;;;25.13;37.45;100818.58;84216;281;136053;-69
2023/08/10 08:14:47;;;;;;;2.70;0.40;;;;;;;25.13;37.40;100818.35;84194;281;24707;-66
2023/08/10 08:16:49;;;;;;;1.50;0.30;;;;;;;25.13;36.97;100813.81;84300;281;136219;-67
2023/08/10 08:18:55;;;;;;;2.40;0.30;;;;;;;25.13;36.99;100819.38;84377;281;22562;-68
2023/08/10 08:20:57;;;;;;;1.20;0.20;;;;;;;25.10;36.92;100817.76;84204;282;137021;-67
2023/08/10 08:22:59;;;;;;;0.90;0.30;;;;;;;24.97;37.28;100811.42;84392;281;24097;-70
2023/08/10 08:25:01;;;;;;;1.70;0.30;;;;;;;24.92;37.10;100812.80;84042;282;136334;-68
2023/08/10 08:27:03;;;;;;;2.70;0.20;;;;;;;24.94;36.77;100811.48;83892;281;463774;-67
2023/08/10 08:29:05;;;;;;;1.30;0.30;;;;;;;24.95;36.76;100811.80;84149;281;137923;-67
2023/08/10 08:31:07;;;;;;;1.30;0.60;;;;;;;24.95;36.73;100817.76;84277;281;25193;-68
2023/08/10 08:33:10;;;;;;;1.00;0.40;;;;;;;24.96;36.50;100813.13;84225;281;136552;-63
2023/08/10 08:35:12;;;;;;;1.80;0.30;;;;;;;24.96;35.64;100807.02;84311;281;22561;-68
2023/08/10 08:37:14;;;;;;;1.00;0.20;;;;;;;24.93;35.56;100804.46;84340;281;136404;-67
2023/08/10 08:39:16;;;;;;;2.30;0.40;;;;;;;24.85;35.73;100796.77;84391;281;22579;-69
2023/08/10 08:41:20;;;;;;;0.50;0.30;;;;;;;24.82;35.75;100819.94;84157;281;136116;-67
2023/08/10 08:43:22;;;;;;;2.90;0.30;;;;;;;24.72;35.65;100816.50;84277;281;25180;-68
2023/08/10 08:45:24;;;;;;;0.70;0.20;;;;;;;24.63;35.81;100810.66;84165;283;136495;-67
2023/08/10 08:47:26;;;;;;;1.90;0.40;;;;;;;24.55;36.15;100808.57;84285;282;25177;-66
2023/08/10 08:49:28;;;;;;;1.40;0.30;;;;;;;24.48;36.37;100805.98;84083;282;136245;-65
2023/08/10 08:51:31;;;;;;;1.50;0.40;;;;;;;24.44;36.58;100804.11;84190;282;25150;-65
2023/08/10 08:53:33;;;;;;;1.00;0.50;;;;;;;24.45;36.77;100808.80;84043;281;136504;-66
2023/08/10 08:55:35;;;;;;;0.50;0.20;;;;;;;24.48;36.94;100798.88;84346;281;22582;-67
2023/08/10 08:57:38;;;;;;;0.30;0.20;;;;;;;24.53;36.97;100786.98;84128;281;136527;-69
2023/08/10 08:59:40;;;;;;;0.50;0.40;;;;;;;24.57;36.93;100794.61;84322;281;22562;-68
2023/08/10 09:01:42;;;;;;;1.50;0.40;;;;;;;24.59;36.91;100799.38;84202;279;137918;-68
2023/08/10 09:03:44;;;;;;;0.80;0.20;;;;;;;24.63;36.30;100803.95;84313;281;25221;-67
2023/08/10 09:05:47;;;;;;;3.30;0.60;;;;;;;24.67;35.68;100802.59;84337;281;137302;-66
2023/08/10 09:07:50;;;;;;;3.60;0.50;;;;;;;24.61;35.70;100804.38;84317;281;24142;-67
2023/08/10 09:09:54;;;;;;;0.70;0.30;;;;;;;24.53;36.28;100801.91;84248;280;136431;-67
2023/08/10 09:11:55;;;;;;;0.30;0.20;;;;;;;24.48;36.49;100795.23;84093;280;22701;-68
2023/08/10 09:14:08;;;;;;;0.30;0.30;;;;;;;24.49;36.63;100800.26;84298;281;136267;-66
2023/08/10 09:16:14;;;;;;;1.40;0.60;;;;;;;24.54;36.47;100793.31;84308;281;137643;-64
2023/08/10 09:18:19;;;;;;;4.20;0.60;;;;;;;24.58;36.13;100793.27;84262;281;24097;-66
2023/08/10 09:20:23;;;;;;;1.30;0.30;;;;;;;24.64;35.83;100791.91;84300;281;137988;-66
2023/08/10 09:22:34;;;;;;;1.50;0.20;;;;;;;24.68;35.73;100796.81;84457;281;25128;-65
2023/08/10 09:24:36;;;;;;;0.30;0.20;;;;;;;24.70;35.54;100788.05;84292;269;137214;-69
2023/08/10 09:26:40;;;;;;;0.90;0.40;;;;;;;24.70;35.85;100793.77;84349;281;22590;-68
2023/08/10 09:28:41;;;;;;;0.40;0.10;;;;;;;24.68;35.81;100790.92;84253;281;136596;-68
2023/08/10 09:30:43;;;;;;;0.60;0.20;;;;;;;24.66;35.89;100786.02;84178;281;23971;-66
2023/08/10 09:32:46;;;;;;;0.30;0.20;;;;;;;24.66;35.64;100789.25;84245;281;136497;-65
2023/08/10 09:34:48;;;;;;;1.70;0.10;;;;;;;24.67;35.34;100784.05;84313;281;25224;-66
2023/08/10 09:36:53;;;;;;;0.80;0.40;;;;;;;24.67;35.36;100783.02;84157;282;135945;-66